Time;durP1;ratioP1;P1;durP2;ratioP2;P2;SDS_P1;SDS_P2;PMS_P1;PMS_P2;Temp;Humidity;BMP_temperature;BMP_pressure;BME280_temperature;BME280_humidity;BME280_pressure;Samples;Min_cycle;Max_cycle;Signal;HPM_P1;HPM_P2
2023/04/08 00:01:41;;;;;;;;;;;10.50;84.70;;;;;;5053398;28;19960;-79
2023/04/08 00:04:09;;;;;;;;;;;10.50;84.60;;;;;;5056270;28;20446;-78
2023/04/08 00:06:36;;;;;;;;;;;10.60;84.70;;;;;;5050324;28;21068;-77
2023/04/08 00:09:03;;;;;;;;;;;10.50;84.80;;;;;;5054802;28;19956;-77
2023/04/08 00:11:29;;;;;;;;;;;10.40;84.80;;;;;;5055376;28;19939;-79
2023/04/08 00:13:56;;;;;;;;;;;10.40;84.80;;;;;;5058154;28;19955;-76
2023/04/08 00:16:22;;;;;;;;;;;10.40;84.80;;;;;;5055761;28;19983;-78
2023/04/08 00:18:49;;;;;;;;;;;10.40;84.90;;;;;;5060605;28;19937;-75
2023/04/08 00:21:19;;;;;;;;;;;10.40;85.00;;;;;;5050752;28;20509;-78
2023/04/08 00:23:46;;;;;;;;;;;10.40;85.00;;;;;;5054167;28;19932;-76
2023/04/08 00:26:12;;;;;;;;;;;10.40;85.00;;;;;;5049546;28;19932;-78
2023/04/08 00:28:39;;;;;;;;;;;10.40;85.00;;;;;;5054879;28;19937;-78
2023/04/08 00:31:06;;;;;;;;;;;10.40;85.10;;;;;;5054465;28;19935;-79
2023/04/08 00:33:33;;;;;;;;;;;10.40;85.20;;;;;;5055666;28;20021;-79
2023/04/08 00:35:59;;;;;;;;;;;10.30;85.20;;;;;;5051809;28;19932;-76
2023/04/08 00:38:27;;;;;;;;;;;10.40;85.20;;;;;;5054437;28;19974;-77
2023/04/08 00:40:53;;;;;;;;;;;10.40;85.30;;;;;;5055451;28;19955;-79
2023/04/08 00:43:20;;;;;;;;;;;10.30;85.20;;;;;;5054002;28;20337;-77
2023/04/08 00:45:47;;;;;;;;;;;10.30;85.20;;;;;;5056968;28;19998;-79
2023/04/08 00:48:13;;;;;;;;;;;10.30;85.20;;;;;;5056381;28;19929;-78
2023/04/08 00:50:40;;;;;;;;;;;10.30;85.30;;;;;;5055387;28;19936;-78
2023/04/08 00:53:06;;;;;;;;;;;10.30;85.30;;;;;;5050152;28;19939;-78
2023/04/08 00:55:34;;;;;;;;;;;10.30;85.30;;;;;;5049851;28;20311;-77
2023/04/08 00:58:01;;;;;;;;;;;10.20;85.30;;;;;;5055384;28;19935;-76
2023/04/08 01:00:28;;;;;;;;;;;10.30;85.40;;;;;;5055882;28;19928;-78
2023/04/08 01:03:01;;;;;;;;;;;10.30;85.40;;;;;;5060545;28;19944;-77
2023/04/08 01:05:30;;;;;;;;;;;10.30;85.40;;;;;;5059937;28;19935;-78
2023/04/08 01:07:59;;;;;;;;;;;10.30;85.50;;;;;;5053267;28;19947;-77
2023/04/08 01:10:27;;;;;;;;;;;10.30;85.50;;;;;;5057882;28;19982;-76
2023/04/08 01:12:56;;;;;;;;;;;10.10;85.50;;;;;;5053723;28;19938;-77
2023/04/08 01:15:23;;;;;;;;;;;10.20;85.60;;;;;;5053427;28;19929;-78
2023/04/08 01:17:52;;;;;;;;;;;10.20;85.70;;;;;;5058782;28;19929;-78
2023/04/08 01:20:19;;;;;;;;;;;10.20;85.80;;;;;;5057558;28;19925;-77
2023/04/08 01:22:56;;;;;;;;;;;10.20;85.90;;;;;;5054311;28;19929;-76
2023/04/08 01:25:24;;;;;;;;;;;10.20;85.90;;;;;;5056601;28;20480;-78
2023/04/08 01:27:55;;;;;;;;;;;10.20;86.00;;;;;;5056249;28;19924;-77
2023/04/08 01:30:23;;;;;;;;;;;10.20;86.10;;;;;;5055356;28;19932;-79
2023/04/08 01:32:50;;;;;;;;;;;10.20;86.10;;;;;;5054840;28;19932;-78
2023/04/08 01:35:18;;;;;;;;;;;10.10;86.10;;;;;;5053015;28;19937;-77
2023/04/08 01:37:44;;;;;;;;;;;10.20;86.20;;;;;;5052698;28;19928;-76
2023/04/08 01:40:11;;;;;;;;;;;10.10;86.10;;;;;;5051647;28;19974;-79
2023/04/08 01:42:38;;;;;;;;;;;10.20;86.10;;;;;;5053113;28;19925;-78
2023/04/08 01:45:07;;;;;;;;;;;10.10;86.00;;;;;;5054697;28;19935;-76
2023/04/08 01:47:34;;;;;;;;;;;10.10;86.00;;;;;;5055105;28;19928;-78
2023/04/08 01:50:01;;;;;;;;;;;10.10;86.00;;;;;;5056940;28;19928;-77
2023/04/08 01:52:28;;;;;;;;;;;10.10;86.10;;;;;;5053311;28;19954;-78
2023/04/08 01:54:55;;;;;;;;;;;10.00;86.10;;;;;;5052662;28;19936;-76
2023/04/08 01:57:23;;;;;;;;;;;10.10;86.10;;;;;;5050416;28;19924;-77
2023/04/08 01:59:51;;;;;;;;;;;10.10;86.20;;;;;;5057727;28;19928;-76
2023/04/08 02:02:19;;;;;;;;;;;10.10;86.30;;;;;;5052425;28;19936;-76
2023/04/08 02:04:46;;;;;;;;;;;10.10;86.30;;;;;;5054626;28;19936;-77
2023/04/08 02:07:12;;;;;;;;;;;10.10;86.40;;;;;;5057559;28;19928;-78
2023/04/08 02:09:39;;;;;;;;;;;10.00;86.30;;;;;;5056584;28;19936;-79
2023/04/08 02:12:06;;;;;;;;;;;10.00;86.30;;;;;;5055466;28;19934;-78
2023/04/08 02:14:32;;;;;;;;;;;10.00;86.40;;;;;;5051774;28;19935;-76
2023/04/08 02:17:01;;;;;;;;;;;10.00;86.40;;;;;;5055023;28;19936;-76
2023/04/08 02:19:30;;;;;;;;;;;10.00;86.50;;;;;;5056357;28;20023;-78
2023/04/08 02:21:59;;;;;;;;;;;10.00;86.50;;;;;;5058754;28;20023;-76
2023/04/08 02:24:26;;;;;;;;;;;10.10;86.60;;;;;;5057200;28;19963;-78
2023/04/08 02:26:54;;;;;;;;;;;10.00;86.50;;;;;;5058150;28;19925;-78
2023/04/08 02:29:21;;;;;;;;;;;10.00;86.50;;;;;;5060227;28;19928;-78
2023/04/08 02:31:49;;;;;;;;;;;9.90;86.50;;;;;;5059646;28;19932;-77
2023/04/08 02:34:15;;;;;;;;;;;10.10;86.80;;;;;;5055780;28;20273;-77
2023/04/08 02:36:46;;;;;;;;;;;10.00;86.80;;;;;;5049395;28;20470;-79
2023/04/08 02:39:12;;;;;;;;;;;10.00;86.80;;;;;;5055384;28;19935;-78
2023/04/08 02:41:39;;;;;;;;;;;10.00;86.80;;;;;;5053626;28;19936;-78
2023/04/08 02:44:05;;;;;;;;;;;10.00;86.90;;;;;;5054740;28;19936;-77
2023/04/08 02:46:32;;;;;;;;;;;9.90;86.80;;;;;;5055293;28;19958;-76
2023/04/08 02:48:58;;;;;;;;;;;9.90;86.90;;;;;;5055264;28;19929;-77
2023/04/08 02:51:25;;;;;;;;;;;9.90;86.90;;;;;;5056525;28;19943;-78
2023/04/08 02:53:54;;;;;;;;;;;9.90;87.10;;;;;;5056163;28;20287;-77
2023/04/08 02:56:20;;;;;;;;;;;9.90;87.00;;;;;;5057692;28;19928;-77
2023/04/08 02:58:47;;;;;;;;;;;9.90;87.00;;;;;;5058541;28;19932;-78
2023/04/08 03:01:13;;;;;;;;;;;9.90;87.10;;;;;;5057471;28;19943;-77
2023/04/08 03:03:40;;;;;;;;;;;9.90;87.10;;;;;;5052679;28;20397;-77
2023/04/08 03:06:06;;;;;;;;;;;9.90;87.20;;;;;;5056972;28;19982;-79
2023/04/08 03:08:33;;;;;;;;;;;9.90;87.20;;;;;;5059707;28;19929;-77
2023/04/08 03:11:01;;;;;;;;;;;9.90;87.20;;;;;;5057861;28;19931;-78
2023/04/08 03:13:28;;;;;;;;;;;9.90;87.30;;;;;;5053747;28;20037;-77
2023/04/08 03:15:55;;;;;;;;;;;9.90;87.30;;;;;;5056613;28;19932;-76
2023/04/08 03:18:21;;;;;;;;;;;9.80;87.20;;;;;;5056194;28;19925;-78
2023/04/08 03:20:48;;;;;;;;;;;10.40;87.60;;;;;;5054101;28;19940;-77
2023/04/08 03:23:15;;;;;;;;;;;9.80;87.30;;;;;;5052130;28;19928;-76
2023/04/08 03:25:41;;;;;;;;;;;9.80;87.30;;;;;;5055276;28;20326;-78
2023/04/08 03:28:09;;;;;;;;;;;9.80;87.30;;;;;;5058366;28;19929;-78
2023/04/08 03:30:36;;;;;;;;;;;9.80;87.30;;;;;;5054832;28;19929;-77
2023/04/08 03:33:06;;;;;;;;;;;9.80;87.40;;;;;;5051726;28;19951;-77
2023/04/08 03:35:33;;;;;;;;;;;9.80;87.40;;;;;;5054561;28;19931;-78
2023/04/08 03:37:59;;;;;;;;;;;9.70;87.40;;;;;;5054254;28;19924;-77
2023/04/08 03:40:26;;;;;;;;;;;9.70;87.40;;;;;;5051804;28;19940;-76
2023/04/08 03:42:52;;;;;;;;;;;9.70;87.40;;;;;;5053476;28;19936;-77
2023/04/08 03:45:20;;;;;;;;;;;9.70;87.40;;;;;;5054496;28;19928;-76
2023/04/08 03:47:47;;;;;;;;;;;9.70;87.40;;;;;;5056271;28;19935;-77
2023/04/08 03:50:14;;;;;;;;;;;9.70;87.40;;;;;;5053403;28;19928;-77
2023/04/08 03:52:40;;;;;;;;;;;9.60;87.30;;;;;;5049868;28;19929;-79
2023/04/08 03:55:07;;;;;;;;;;;9.60;87.40;;;;;;5054855;28;19935;-76
2023/04/08 03:57:34;;;;;;;;;;;9.60;87.40;;;;;;5051522;28;20445;-77
2023/04/08 04:00:01;;;;;;;;;;;9.60;87.40;;;;;;5052648;28;19939;-76
2023/04/08 04:02:28;;;;;;;;;;;9.60;87.50;;;;;;5054573;28;19932;-77
2023/04/08 04:04:55;;;;;;;;;;;9.60;87.50;;;;;;5054176;28;19954;-77
2023/04/08 04:07:21;;;;;;;;;;;9.50;87.50;;;;;;5056413;28;19932;-78
2023/04/08 04:09:48;;;;;;;;;;;9.50;87.50;;;;;;5057203;28;20390;-76
2023/04/08 04:12:15;;;;;;;;;;;9.50;87.50;;;;;;5056248;28;19936;-77
2023/04/08 04:14:41;;;;;;;;;;;9.50;87.60;;;;;;5053702;28;20032;-78
2023/04/08 04:17:08;;;;;;;;;;;9.50;87.70;;;;;;5053698;28;19952;-78
2023/04/08 04:19:35;;;;;;;;;;;9.50;87.70;;;;;;5056996;28;20747;-78
2023/04/08 04:22:02;;;;;;;;;;;9.50;87.70;;;;;;5050446;28;20002;-78
2023/04/08 04:24:29;;;;;;;;;;;9.50;87.80;;;;;;5057422;28;19940;-78
2023/04/08 04:26:55;;;;;;;;;;;9.50;87.80;;;;;;5057240;28;19924;-76
2023/04/08 04:29:22;;;;;;;;;;;9.50;87.80;;;;;;5049135;28;20547;-78
2023/04/08 04:31:48;;;;;;;;;;;9.50;87.80;;;;;;5046510;28;19933;-78
2023/04/08 04:34:15;;;;;;;;;;;9.50;87.90;;;;;;5054605;28;19940;-77
2023/04/08 04:36:43;;;;;;;;;;;9.50;88.00;;;;;;5055181;28;20070;-78
2023/04/08 04:39:09;;;;;;;;;;;9.40;88.10;;;;;;5058177;28;20887;-78
2023/04/08 04:41:39;;;;;;;;;;;9.40;88.10;;;;;;5057182;28;19929;-78
2023/04/08 04:44:06;;;;;;;;;;;9.50;88.30;;;;;;5055681;28;19969;-77
2023/04/08 04:46:32;;;;;;;;;;;9.40;88.30;;;;;;5061008;28;19936;-76
2023/04/08 04:48:59;;;;;;;;;;;9.40;88.30;;;;;;5059005;28;20695;-78
2023/04/08 04:51:26;;;;;;;;;;;9.40;88.30;;;;;;5055916;28;19932;-76
2023/04/08 04:53:53;;;;;;;;;;;9.40;88.30;;;;;;5060090;28;20472;-77
2023/04/08 04:56:20;;;;;;;;;;;9.40;88.30;;;;;;5056256;28;20401;-76
2023/04/08 04:58:47;;;;;;;;;;;9.30;88.20;;;;;;5058599;28;20641;-77
2023/04/08 05:01:13;;;;;;;;;;;9.40;88.30;;;;;;5053881;28;19933;-78
2023/04/08 05:03:40;;;;;;;;;;;9.30;88.20;;;;;;5055401;28;19928;-78
2023/04/08 05:06:06;;;;;;;;;;;9.30;88.20;;;;;;5060858;28;19928;-78
2023/04/08 05:08:33;;;;;;;;;;;9.30;89.00;;;;;;5058488;28;19936;-78
2023/04/08 05:11:01;;;;;;;;;;;9.30;88.30;;;;;;5059400;28;19944;-76
2023/04/08 05:13:27;;;;;;;;;;;9.30;88.30;;;;;;5060126;28;19929;-77
2023/04/08 05:15:54;;;;;;;;;;;9.30;88.30;;;;;;5051054;28;19928;-77
2023/04/08 05:18:20;;;;;;;;;;;9.20;88.20;;;;;;5057415;28;19946;-77
2023/04/08 05:20:47;;;;;;;;;;;9.20;88.30;;;;;;5055881;28;20411;-76
2023/04/08 05:23:13;;;;;;;;;;;9.20;88.20;;;;;;5053503;28;19936;-76
2023/04/08 05:25:40;;;;;;;;;;;9.20;88.20;;;;;;5053142;28;19928;-78
2023/04/08 05:28:08;;;;;;;;;;;9.20;88.30;;;;;;5051378;28;19932;-76
2023/04/08 05:30:34;;;;;;;;;;;9.10;88.20;;;;;;5051689;28;20680;-78
2023/04/08 05:33:01;;;;;;;;;;;9.10;88.20;;;;;;5053057;28;20473;-77
2023/04/08 05:35:27;;;;;;;;;;;9.10;88.20;;;;;;5052071;28;19932;-78
2023/04/08 05:37:54;;;;;;;;;;;9.10;88.20;;;;;;5054103;28;19951;-77
2023/04/08 05:40:20;;;;;;;;;;;9.10;88.30;;;;;;5051257;28;20373;-75
2023/04/08 05:42:47;;;;;;;;;;;9.10;88.30;;;;;;5058093;28;20399;-74
2023/04/08 05:45:16;;;;;;;;;;;9.10;88.30;;;;;;5053122;28;19928;-75
2023/04/08 05:47:42;;;;;;;;;;;9.00;88.20;;;;;;5051177;28;20402;-77
2023/04/08 05:50:10;;;;;;;;;;;9.00;88.20;;;;;;5053060;28;19933;-80
2023/04/08 05:52:36;;;;;;;;;;;9.00;88.20;;;;;;5058030;28;19928;-76
2023/04/08 05:55:03;;;;;;;;;;;9.00;88.30;;;;;;5050634;28;19929;-72
2023/04/08 05:57:29;;;;;;;;;;;9.00;88.20;;;;;;5058295;28;19936;-69
2023/04/08 05:59:56;;;;;;;;;;;9.00;88.20;;;;;;5058838;28;20311;-70
2023/04/08 06:02:24;;;;;;;;;;;9.00;88.30;;;;;;5047627;28;20442;-71
2023/04/08 06:04:50;;;;;;;;;;;9.00;88.30;;;;;;5056576;28;19936;-70
2023/04/08 06:07:17;;;;;;;;;;;9.00;88.30;;;;;;5046251;28;19936;-71
2023/04/08 06:09:44;;;;;;;;;;;9.00;88.40;;;;;;5049761;28;20056;-69
2023/04/08 06:12:10;;;;;;;;;;;9.00;88.40;;;;;;5059030;28;20015;-72
2023/04/08 06:14:37;;;;;;;;;;;9.00;88.40;;;;;;5051124;28;19968;-72
2023/04/08 06:17:04;;;;;;;;;;;9.00;88.40;;;;;;5052375;28;19936;-71
2023/04/08 06:19:32;;;;;;;;;;;9.00;88.50;;;;;;5057638;28;19932;-72
2023/04/08 06:21:58;;;;;;;;;;;8.90;88.50;;;;;;5049466;28;20422;-73
2023/04/08 06:24:26;;;;;;;;;;;9.00;88.50;;;;;;5056515;28;20402;-71
2023/04/08 06:26:53;;;;;;;;;;;9.00;88.50;;;;;;5056037;28;19979;-72
2023/04/08 06:29:19;;;;;;;;;;;9.00;88.60;;;;;;5061161;28;19963;-69
2023/04/08 06:31:46;;;;;;;;;;;9.00;88.60;;;;;;5050859;28;19933;-69
2023/04/08 06:34:12;;;;;;;;;;;9.00;88.70;;;;;;5048881;28;19936;-72
2023/04/08 06:36:40;;;;;;;;;;;9.00;88.70;;;;;;5055432;28;19935;-72
2023/04/08 06:39:07;;;;;;;;;;;9.00;88.70;;;;;;5057638;28;19928;-73
2023/04/08 06:41:33;;;;;;;;;;;9.00;88.80;;;;;;5049494;28;19929;-71
2023/04/08 06:44:00;;;;;;;;;;;9.00;88.80;;;;;;5051778;28;19932;-72
2023/04/08 06:46:26;;;;;;;;;;;9.00;88.90;;;;;;5050188;28;19928;-73
2023/04/08 06:48:54;;;;;;;;;;;9.00;88.80;;;;;;5053787;28;19932;-72
2023/04/08 06:51:20;;;;;;;;;;;9.00;88.80;;;;;;5054917;28;19929;-73
2023/04/08 06:53:48;;;;;;;;;;;9.00;88.80;;;;;;5057917;28;19931;-70
2023/04/08 06:56:15;;;;;;;;;;;9.00;88.80;;;;;;5055167;28;19940;-70
2023/04/08 06:58:41;;;;;;;;;;;9.00;88.80;;;;;;5055247;28;19955;-71
2023/04/08 07:01:08;;;;;;;;;;;9.00;88.90;;;;;;5053668;28;19982;-72
2023/04/08 07:03:34;;;;;;;;;;;9.10;89.00;;;;;;5057918;28;19929;-72
2023/04/08 07:06:01;;;;;;;;;;;9.00;89.10;;;;;;5049683;28;20378;-70
2023/04/08 07:08:27;;;;;;;;;;;9.00;89.20;;;;;;5050489;28;19929;-71
2023/04/08 07:10:55;;;;;;;;;;;9.10;89.20;;;;;;5051313;28;19935;-71
2023/04/08 07:13:22;;;;;;;;;;;9.10;89.20;;;;;;5055084;28;19928;-72
2023/04/08 07:15:48;;;;;;;;;;;9.10;89.30;;;;;;5059736;28;20453;-72
2023/04/08 07:18:15;;;;;;;;;;;9.10;89.30;;;;;;5052613;28;19929;-71
2023/04/08 07:20:42;;;;;;;;;;;9.10;89.40;;;;;;5056665;28;20418;-70
2023/04/08 07:23:08;;;;;;;;;;;9.10;89.40;;;;;;5046350;28;19932;-72
2023/04/08 07:25:35;;;;;;;;;;;9.10;89.50;;;;;;5054128;28;19932;-69
2023/04/08 07:28:03;;;;;;;;;;;9.10;89.70;;;;;;5052917;28;19931;-71
2023/04/08 07:30:29;;;;;;;;;;;9.10;89.70;;;;;;5052987;28;19936;-70
2023/04/08 07:32:56;;;;;;;;;;;9.10;89.80;;;;;;5059765;28;19932;-70
2023/04/08 07:35:24;;;;;;;;;;;9.10;89.80;;;;;;5054875;28;19928;-72
2023/04/08 07:37:51;;;;;;;;;;;9.20;90.00;;;;;;5054407;28;20004;-72
2023/04/08 07:40:18;;;;;;;;;;;9.20;90.00;;;;;;5054168;28;19982;-71
2023/04/08 07:42:45;;;;;;;;;;;9.20;90.00;;;;;;5051918;28;20634;-67
2023/04/08 07:45:13;;;;;;;;;;;9.20;90.00;;;;;;5059944;28;19982;-71
2023/04/08 07:47:39;;;;;;;;;;;9.20;89.90;;;;;;5051436;28;19928;-71
2023/04/08 07:50:06;;;;;;;;;;;9.20;89.80;;;;;;5052292;28;19928;-71
2023/04/08 07:52:33;;;;;;;;;;;9.20;89.70;;;;;;5050429;28;19928;-70
2023/04/08 07:55:00;;;;;;;;;;;9.20;89.70;;;;;;5052255;28;19932;-68
2023/04/08 07:57:27;;;;;;;;;;;9.20;89.60;;;;;;5051348;28;19929;-70
2023/04/08 07:59:53;;;;;;;;;;;9.20;89.60;;;;;;5046745;28;19935;-71
2023/04/08 08:02:21;;;;;;;;;;;9.30;89.70;;;;;;5052001;28;19929;-72
2023/04/08 08:04:48;;;;;;;;;;;9.30;89.90;;;;;;5046958;28;19932;-70
2023/04/08 08:07:15;;;;;;;;;;;9.30;90.00;;;;;;5049838;28;19936;-71
2023/04/08 08:09:41;;;;;;;;;;;9.30;90.00;;;;;;5044348;28;19937;-73
2023/04/08 08:12:08;;;;;;;;;;;9.30;90.00;;;;;;5059689;28;19928;-73
2023/04/08 08:14:34;;;;;;;;;;;9.40;90.00;;;;;;5047636;28;19998;-69
2023/04/08 08:17:03;;;;;;;;;;;9.40;90.00;;;;;;5054705;28;19940;-70
2023/04/08 08:19:31;;;;;;;;;;;9.40;90.00;;;;;;5057521;28;19940;-67
2023/04/08 08:21:57;;;;;;;;;;;9.40;90.00;;;;;;5058783;28;19935;-73
2023/04/08 08:24:24;;;;;;;;;;;9.50;90.00;;;;;;5048619;28;20314;-73
2023/04/08 08:26:51;;;;;;;;;;;9.50;90.00;;;;;;5053847;28;19933;-71
2023/04/08 08:29:17;;;;;;;;;;;9.50;89.80;;;;;;5051503;28;19937;-72
2023/04/08 08:31:44;;;;;;;;;;;9.60;89.70;;;;;;5054981;28;19928;-71
2023/04/08 08:34:10;;;;;;;;;;;9.60;89.60;;;;;;5047690;28;19939;-72
2023/04/08 08:36:38;;;;;;;;;;;9.60;89.50;;;;;;5052578;28;19932;-73
2023/04/08 08:39:05;;;;;;;;;;;9.60;89.40;;;;;;5050887;28;19935;-73
2023/04/08 08:41:35;;;;;;;;;;;9.60;89.30;;;;;;5054673;28;19940;-70
2023/04/08 08:44:02;;;;;;;;;;;9.70;89.20;;;;;;5056781;28;19940;-69
2023/04/08 08:46:29;;;;;;;;;;;9.70;89.00;;;;;;5050583;28;20012;-71
2023/04/08 08:48:56;;;;;;;;;;;9.80;88.90;;;;;;5050639;28;20723;-68
2023/04/08 08:51:23;;;;;;;;;;;9.80;89.40;;;;;;5057130;28;19974;-73
2023/04/08 08:53:51;;;;;;;;;;;9.80;88.60;;;;;;5051429;28;19928;-70
2023/04/08 08:56:18;;;;;;;;;;;9.80;88.40;;;;;;5053343;28;19928;-71
2023/04/08 08:58:44;;;;;;;;;;;9.90;88.40;;;;;;5047174;28;19936;-74
2023/04/08 09:01:30;;;;;;;;;;;9.90;88.40;;;;;;5044448;28;19935;-71
2023/04/08 09:04:06;;;;;;;;;;;9.90;88.40;;;;;;5046710;28;19931;-71
2023/04/08 09:06:33;;;;;;;;;;;10.00;88.30;;;;;;5052540;28;19979;-72
2023/04/08 09:09:01;;;;;;;;;;;10.00;88.20;;;;;;5051317;28;19929;-70
2023/04/08 09:11:28;;;;;;;;;;;10.00;88.10;;;;;;5042936;28;19932;-71
2023/04/08 09:13:56;;;;;;;;;;;10.00;88.00;;;;;;5049693;28;19932;-72
2023/04/08 09:16:23;;;;;;;;;;;10.00;87.90;;;;;;5053337;28;19939;-72
2023/04/08 09:18:49;;;;;;;;;;;10.10;87.90;;;;;;5052312;28;19924;-70
2023/04/08 09:21:16;;;;;;;;;;;10.10;87.80;;;;;;5048232;28;19932;-68
2023/04/08 09:23:44;;;;;;;;;;;10.20;87.60;;;;;;5056139;28;19979;-73
2023/04/08 09:26:13;;;;;;;;;;;10.20;87.20;;;;;;5059343;28;19929;-73
2023/04/08 09:28:40;;;;;;;;;;;10.30;87.10;;;;;;5060953;28;19929;-72
2023/04/08 09:31:18;;;;;;;;;;;10.30;86.40;;;;;;5051504;28;19928;-71
2023/04/08 09:33:46;;;;;;;;;;;10.40;86.00;;;;;;5059724;28;19928;-70
2023/04/08 09:36:12;;;;;;;;;;;10.50;85.70;;;;;;5054355;28;19972;-73
2023/04/08 09:38:39;;;;;;;;;;;10.50;85.50;;;;;;5048218;28;20023;-72
2023/04/08 09:41:06;;;;;;;;;;;10.50;85.10;;;;;;5055987;28;20043;-73
2023/04/08 09:43:36;;;;;;;;;;;10.50;84.70;;;;;;5049674;28;20445;-69
2023/04/08 09:46:06;;;;;;;;;;;10.60;84.10;;;;;;5059709;28;20622;-71
2023/04/08 09:48:34;;;;;;;;;;;10.60;83.80;;;;;;5058836;28;19986;-72
2023/04/08 09:51:01;;;;;;;;;;;10.70;83.70;;;;;;5051015;28;20061;-71
2023/04/08 09:53:30;;;;;;;;;;;10.70;83.10;;;;;;5056292;28;19928;-72
2023/04/08 09:55:58;;;;;;;;;;;10.80;82.80;;;;;;5053338;28;20057;-74
2023/04/08 09:58:28;;;;;;;;;;;10.90;82.30;;;;;;5045459;28;19967;-71
2023/04/08 10:00:56;;;;;;;;;;;10.90;82.10;;;;;;5046895;28;20016;-71
2023/04/08 10:03:26;;;;;;;;;;;11.00;81.70;;;;;;5059530;28;19929;-71
2023/04/08 10:05:55;;;;;;;;;;;11.00;80.30;;;;;;5049928;28;19940;-72
2023/04/08 10:08:22;;;;;;;;;;;11.10;78.90;;;;;;5054092;28;19932;-72
2023/04/08 10:10:48;;;;;;;;;;;11.20;79.10;;;;;;5051494;28;19929;-71
2023/04/08 10:13:15;;;;;;;;;;;11.30;79.10;;;;;;5049753;28;20402;-71
2023/04/08 10:15:42;;;;;;;;;;;11.40;79.10;;;;;;5058366;28;19935;-73
2023/04/08 10:18:27;;;;;;;;;;;11.40;78.50;;;;;;5054282;28;19935;-73
2023/04/08 10:20:55;;;;;;;;;;;11.40;78.10;;;;;;5052813;28;19940;-72
2023/04/08 10:23:41;;;;;;;;;;;11.50;77.70;;;;;;5051327;28;19928;-72
2023/04/08 10:26:29;;;;;;;;;;;11.50;77.40;;;;;;5057003;28;19932;-71
2023/04/08 10:28:56;;;;;;;;;;;11.50;76.30;;;;;;5049787;28;19976;-71
2023/04/08 10:31:22;;;;;;;;;;;11.50;76.40;;;;;;5055286;28;19944;-72
2023/04/08 10:33:49;;;;;;;;;;;11.50;76.50;;;;;;5047685;28;20019;-70
2023/04/08 10:36:17;;;;;;;;;;;11.50;76.30;;;;;;5054193;28;19929;-70
2023/04/08 10:38:46;;;;;;;;;;;11.50;76.20;;;;;;5052499;28;19932;-71
2023/04/08 10:41:15;;;;;;;;;;;11.60;75.90;;;;;;5058225;28;20357;-72
2023/04/08 10:43:41;;;;;;;;;;;11.50;75.70;;;;;;5047105;28;19928;-73
2023/04/08 10:46:10;;;;;;;;;;;11.50;75.70;;;;;;5053742;28;19928;-70
2023/04/08 10:48:36;;;;;;;;;;;11.50;75.30;;;;;;5047885;28;19990;-72
2023/04/08 10:51:04;;;;;;;;;;;11.50;75.30;;;;;;5053380;28;19986;-71
2023/04/08 10:53:32;;;;;;;;;;;11.50;75.10;;;;;;5050356;28;19928;-70
2023/04/08 10:56:09;;;;;;;;;;;11.50;74.80;;;;;;5050852;28;20384;-70
2023/04/08 10:58:36;;;;;;;;;;;11.50;74.80;;;;;;5060792;28;20746;-72
2023/04/08 11:01:03;;;;;;;;;;;11.50;74.60;;;;;;5058911;28;19933;-72
2023/04/08 11:03:32;;;;;;;;;;;11.60;74.60;;;;;;5051694;28;19929;-71
2023/04/08 11:05:59;;;;;;;;;;;11.50;74.40;;;;;;5049981;28;20452;-73
2023/04/08 11:08:27;;;;;;;;;;;11.60;74.10;;;;;;5053589;28;19936;-69
2023/04/08 11:10:55;;;;;;;;;;;11.60;73.70;;;;;;5052805;28;19928;-71
2023/04/08 11:13:22;;;;;;;;;;;11.60;74.10;;;;;;5057461;28;19936;-71
2023/04/08 11:15:49;;;;;;;;;;;11.60;74.00;;;;;;5053255;28;19928;-70
2023/04/08 11:18:16;;;;;;;;;;;11.60;73.60;;;;;;5049923;28;20377;-71
2023/04/08 11:20:43;;;;;;;;;;;12.00;73.60;;;;;;5044085;28;20006;-71
2023/04/08 11:23:12;;;;;;;;;;;11.60;73.20;;;;;;5045525;28;19928;-72
2023/04/08 11:25:39;;;;;;;;;;;11.60;72.70;;;;;;5044939;28;19929;-70
2023/04/08 11:28:07;;;;;;;;;;;11.60;72.60;;;;;;5055838;28;19935;-71
2023/04/08 11:30:34;;;;;;;;;;;11.60;72.80;;;;;;5055429;28;19974;-72
2023/04/08 11:33:00;;;;;;;;;;;11.60;72.60;;;;;;5047939;28;19933;-69
2023/04/08 11:35:29;;;;;;;;;;;11.60;72.20;;;;;;5055327;28;21298;-72
2023/04/08 11:37:56;;;;;;;;;;;11.70;72.10;;;;;;5054677;28;19973;-71
2023/04/08 11:40:23;;;;;;;;;;;11.70;71.90;;;;;;5053065;28;19971;-71
2023/04/08 11:42:50;;;;;;;;;;;11.70;71.50;;;;;;5055855;28;19933;-70
2023/04/08 11:45:20;;;;;;;;;;;11.70;70.80;;;;;;5052184;28;19929;-71
2023/04/08 11:47:47;;;;;;;;;;;11.70;70.20;;;;;;5057248;28;19928;-71
2023/04/08 11:50:13;;;;;;;;;;;11.80;69.60;;;;;;5052809;28;20043;-72
2023/04/08 11:52:40;;;;;;;;;;;11.80;69.20;;;;;;5054726;28;20306;-73
2023/04/08 11:55:07;;;;;;;;;;;11.80;69.20;;;;;;5041955;28;20350;-71
2023/04/08 11:57:35;;;;;;;;;;;11.90;69.00;;;;;;5057704;28;19948;-72
2023/04/08 12:00:02;;;;;;;;;;;11.90;68.80;;;;;;5054404;28;20380;-71
2023/04/08 12:02:30;;;;;;;;;;;11.90;69.10;;;;;;5056629;28;20765;-72
2023/04/08 12:04:56;;;;;;;;;;;11.90;69.10;;;;;;5052138;28;19932;-70
2023/04/08 12:07:23;;;;;;;;;;;12.00;69.00;;;;;;5058842;28;20390;-72
2023/04/08 12:09:49;;;;;;;;;;;12.00;68.80;;;;;;5053962;28;19936;-71
2023/04/08 12:12:16;;;;;;;;;;;12.10;69.20;;;;;;5061244;28;19928;-70
2023/04/08 12:14:42;;;;;;;;;;;12.10;69.20;;;;;;5052913;28;19929;-72
2023/04/08 12:17:09;;;;;;;;;;;12.10;69.10;;;;;;5059200;28;19933;-72
2023/04/08 12:19:37;;;;;;;;;;;12.10;69.10;;;;;;5052533;28;19933;-72
2023/04/08 12:22:03;;;;;;;;;;;12.10;69.20;;;;;;5054547;28;19936;-72
2023/04/08 12:24:30;;;;;;;;;;;12.10;69.00;;;;;;5052087;28;19929;-69
2023/04/08 12:26:56;;;;;;;;;;;12.10;68.80;;;;;;5053276;28;20685;-72
2023/04/08 12:29:23;;;;;;;;;;;12.20;69.30;;;;;;5047799;28;19936;-72
2023/04/08 12:31:50;;;;;;;;;;;12.20;69.40;;;;;;5047442;28;19936;-72
2023/04/08 12:34:17;;;;;;;;;;;12.20;69.60;;;;;;5051410;28;19928;-72
2023/04/08 12:36:44;;;;;;;;;;;12.30;69.90;;;;;;5057928;28;19936;-72
2023/04/08 12:39:11;;;;;;;;;;;12.20;69.80;;;;;;5048417;28;19928;-73
2023/04/08 12:41:37;;;;;;;;;;;12.20;69.80;;;;;;5051097;28;20394;-73
2023/04/08 12:44:04;;;;;;;;;;;12.30;69.90;;;;;;5047449;28;19978;-72
2023/04/08 12:46:31;;;;;;;;;;;12.30;69.80;;;;;;5053839;28;19936;-69
2023/04/08 12:48:57;;;;;;;;;;;12.30;69.00;;;;;;5052663;28;19928;-72
2023/04/08 12:51:24;;;;;;;;;;;12.30;69.10;;;;;;5050538;28;20457;-69
2023/04/08 12:53:52;;;;;;;;;;;12.30;69.10;;;;;;5046124;28;19928;-69
2023/04/08 12:56:20;;;;;;;;;;;12.40;69.30;;;;;;5056304;28;19951;-71
2023/04/08 12:58:46;;;;;;;;;;;12.40;69.30;;;;;;5052533;28;19928;-70
2023/04/08 13:01:13;;;;;;;;;;;12.40;69.20;;;;;;5054021;28;19929;-72
2023/04/08 13:03:41;;;;;;;;;;;12.50;69.00;;;;;;5063082;28;19928;-71
2023/04/08 13:06:07;;;;;;;;;;;12.70;68.70;;;;;;5061962;28;19928;-71
2023/04/08 13:08:34;;;;;;;;;;;12.50;68.30;;;;;;5056260;28;19934;-70
2023/04/08 13:11:02;;;;;;;;;;;12.60;68.40;;;;;;5056647;28;20386;-69
2023/04/08 13:13:29;;;;;;;;;;;12.60;68.10;;;;;;5062016;28;19937;-71
2023/04/08 13:15:56;;;;;;;;;;;12.70;67.40;;;;;;5063040;28;19935;-70
2023/04/08 13:18:23;;;;;;;;;;;12.70;67.50;;;;;;5053529;28;19982;-73
2023/04/08 13:20:49;;;;;;;;;;;12.80;67.60;;;;;;5057359;28;19928;-70
2023/04/08 13:23:16;;;;;;;;;;;12.90;67.60;;;;;;5052065;28;19929;-71
2023/04/08 13:25:44;;;;;;;;;;;12.90;66.60;;;;;;5053006;28;19928;-72
2023/04/08 13:28:12;;;;;;;;;;;13.00;65.90;;;;;;5054672;28;19929;-72
2023/04/08 13:30:38;;;;;;;;;;;13.00;65.80;;;;;;5060791;28;19933;-73
2023/04/08 13:33:05;;;;;;;;;;;13.10;65.70;;;;;;5055945;28;19933;-71
2023/04/08 13:35:31;;;;;;;;;;;13.10;65.90;;;;;;5053560;28;19982;-70
2023/04/08 13:37:58;;;;;;;;;;;13.10;65.90;;;;;;5057305;28;20322;-72
2023/04/08 13:40:25;;;;;;;;;;;13.20;65.50;;;;;;5054098;28;19932;-69
2023/04/08 13:42:52;;;;;;;;;;;13.20;65.30;;;;;;5057975;28;20006;-72
2023/04/08 13:45:20;;;;;;;;;;;13.20;65.20;;;;;;5058847;28;19929;-69
2023/04/08 13:47:47;;;;;;;;;;;13.30;65.10;;;;;;5053719;28;19929;-71
2023/04/08 13:50:13;;;;;;;;;;;13.30;64.50;;;;;;5053838;28;20074;-69
2023/04/08 13:52:40;;;;;;;;;;;13.30;64.60;;;;;;5057174;28;19935;-70
2023/04/08 13:55:07;;;;;;;;;;;13.40;64.60;;;;;;5053464;28;19935;-68
2023/04/08 13:57:33;;;;;;;;;;;13.50;62.90;;;;;;5056283;28;19928;-70
2023/04/08 14:00:00;;;;;;;;;;;13.60;63.50;;;;;;5047841;28;19932;-73
2023/04/08 14:02:28;;;;;;;;;;;13.70;64.10;;;;;;5062365;28;19932;-71
2023/04/08 14:04:55;;;;;;;;;;;13.70;63.80;;;;;;5061274;28;20866;-70
2023/04/08 14:07:22;;;;;;;;;;;13.80;63.10;;;;;;5052222;28;19974;-69
2023/04/08 14:09:48;;;;;;;;;;;14.00;63.40;;;;;;5057867;28;20761;-69
2023/04/08 14:12:15;;;;;;;;;;;14.00;62.10;;;;;;5062848;28;19932;-69
2023/04/08 14:14:41;;;;;;;;;;;14.10;61.50;;;;;;5047593;28;19933;-69
2023/04/08 14:17:08;;;;;;;;;;;14.10;62.30;;;;;;5049624;28;19929;-70
2023/04/08 14:19:36;;;;;;;;;;;14.20;62.20;;;;;;5053407;28;19939;-73
2023/04/08 14:22:02;;;;;;;;;;;14.30;61.80;;;;;;5047759;28;20749;-73
2023/04/08 14:24:29;;;;;;;;;;;14.40;62.20;;;;;;5058721;28;19932;-72